North Sioux City, SD (57049)

8:40 PM CDT on August 29, 2014 (GMT -0500)
McCook Lake SD | Change Station
CLOSE
Current Station
Personal Weather Station
Location: McCook Lake, SD
Elevation: 1114 ft
Nearby Weather Stations

Elev 1114 ft 42.54 °N, 96.51 °W | Updated 3 seconds ago

Partly Cloudy
Partly Cloudy
67.7 °F
Feels Like 67.7 °F
N
0.0
Wind Variable Wind from NW
Gusts 6.0 mph

Today
High -- | Low -- °F
--% Chance of Precip.
Yesterday
High -- | Low -- °F
Precip. -- in
6:47 AM 8:05 PM
Waxing Crescent, 18% visible
Pressure 29.75 in
Visibility 9.0 miles
Clouds Few 1900 ft
Scattered Clouds 10000 ft
Scattered Clouds 12000 ft
Dew Point 67 °F
Humidity 97%
Rainfall 0.18 in
Snow Depth Not available.
UV 0 out of 12
Pollen 8.20 out of 12
Air Quality Not available.
Flu Activity Not available.
METAR KSUX 300052Z AUTO 18003KT 9SM -RA FEW019 SCT100 SCT120 22/21 A2977 RMK AO2 RAB06 SLP074 P0001 T02220211 $

More Conditions Fewer Conditions

Pressure 29.75 in
Visibility 9.0 miles
Clouds Few 1900 ft
Scattered Clouds 10000 ft
Scattered Clouds 12000 ft
Dew Point 67 °F
Humidity 97%
Rainfall 0.18 in
Snow Depth Not available.
UV 0 out of 12
Pollen 8.20 out of 12
Air Quality Not available.
Flu Activity Not available.
METAR KSUX 300052Z AUTO 18003KT 9SM -RA FEW019 SCT100 SCT120 22/21 A2977 RMK AO2 RAB06 SLP074 P0001 T02220211 $

More Conditions Fewer Conditions

10-Day Weather Forecast

Almanac

Astronomy

Aug. 29, 2014 Rise Set
Actual Time 6:47 AM CDT 8:05 PM CDT
Civil Twilight 6:18 AM CDT 8:34 PM CDT
Nautical Twilight 5:43 AM CDT 9:09 PM CDT
Astronomical Twilight 5:06 AM CDT 9:46 PM CDT
Moon 10:44 AM CDT (8/29) 9:57 PM CDT (8/29)
Length of Visible Light 14h 15m
Length of Day
13h 17m
Tomorrow will be 2m 44s shorter.
Waxing Crescent, 18% of the Moon is Illuminated
Today
Waxing Crescent
Sep 2
First Quarter
Sep 8
Full
Sep 15
Last Quarter
Sep 24
New

Today's Extremes

State Highs State Lows

Community

WunderPhotos

Upload Photos

1,748,403 photos uploaded!

Nearby

Snow Depth

Station Depth Elevation
Blind Park 0 in 6890 ft

Earthquake Activity

City Distance Mag. Time & Date
No recent earthquake activity has been reported nearby.
Minimum magnitude displayed is 2.5.

Coastal Water Temperatures

Place Temperature
No Stations Reporting

Nearby Weather Stations